sensor_id;sensor_type;location;lat;lon;timestamp;temperature;humidity
48744;DHT22;34538;48.836;9.174;2022-09-27T00:00:59;10.60;99.90
48744;DHT22;34538;48.836;9.174;2022-09-27T00:03:26;10.60;99.90
48744;DHT22;34538;48.836;9.174;2022-09-27T00:06:13;10.60;99.90
48744;DHT22;34538;48.836;9.174;2022-09-27T00:08:39;10.60;99.90
48744;DHT22;34538;48.836;9.174;2022-09-27T00:11:09;10.60;99.90
48744;DHT22;34538;48.836;9.174;2022-09-27T00:13:38;10.60;99.90
48744;DHT22;34538;48.836;9.174;2022-09-27T00:16:04;10.60;99.90
48744;DHT22;34538;48.836;9.174;2022-09-27T00:18:30;10.60;99.90
48744;DHT22;34538;48.836;9.174;2022-09-27T00:21:02;10.60;99.90
48744;DHT22;34538;48.836;9.174;2022-09-27T00:23:28;10.60;99.90
48744;DHT22;34538;48.836;9.174;2022-09-27T00:25:55;10.70;99.90
48744;DHT22;34538;48.836;9.174;2022-09-27T00:28:21;10.70;99.90
48744;DHT22;34538;48.836;9.174;2022-09-27T00:30:47;10.60;99.90
48744;DHT22;34538;48.836;9.174;2022-09-27T00:33:13;10.60;99.90
48744;DHT22;34538;48.836;9.174;2022-09-27T00:35:38;10.60;99.90
48744;DHT22;34538;48.836;9.174;2022-09-27T00:38:04;10.60;99.90
48744;DHT22;34538;48.836;9.174;2022-09-27T00:40:31;10.60;99.90
48744;DHT22;34538;48.836;9.174;2022-09-27T00:42:56;10.60;99.90
48744;DHT22;34538;48.836;9.174;2022-09-27T00:45:22;10.70;99.90
48744;DHT22;34538;48.836;9.174;2022-09-27T00:47:58;10.70;99.90
48744;DHT22;34538;48.836;9.174;2022-09-27T00:50:40;10.70;99.90
48744;DHT22;34538;48.836;9.174;2022-09-27T00:53:24;10.70;99.90
48744;DHT22;34538;48.836;9.174;2022-09-27T00:56:04;10.70;99.90
48744;DHT22;34538;48.836;9.174;2022-09-27T00:58:37;10.80;99.90
48744;DHT22;34538;48.836;9.174;2022-09-27T01:01:06;10.80;99.90
48744;DHT22;34538;48.836;9.174;2022-09-27T01:06:25;10.80;99.90
48744;DHT22;34538;48.836;9.174;2022-09-27T01:08:50;10.80;99.90
48744;DHT22;34538;48.836;9.174;2022-09-27T01:11:43;10.80;99.90
48744;DHT22;34538;48.836;9.174;2022-09-27T01:17:20;10.80;99.90
48744;DHT22;34538;48.836;9.174;2022-09-27T01:31:32;10.80;99.90
48744;DHT22;34538;48.836;9.174;2022-09-27T01:34:07;10.80;99.90
48744;DHT22;34538;48.836;9.174;2022-09-27T01:36:47;10.80;99.90
48744;DHT22;34538;48.836;9.174;2022-09-27T01:42:32;10.80;99.90
48744;DHT22;34538;48.836;9.174;2022-09-27T01:50:43;10.70;99.90
48744;DHT22;34538;48.836;9.174;2022-09-27T01:53:26;10.70;99.90
48744;DHT22;34538;48.836;9.174;2022-09-27T01:56:33;10.70;99.90
48744;DHT22;34538;48.836;9.174;2022-09-27T01:59:18;10.70;99.90
48744;DHT22;34538;48.836;9.174;2022-09-27T02:01:53;10.70;99.90
48744;DHT22;34538;48.836;9.174;2022-09-27T02:04:27;10.70;99.90
48744;DHT22;34538;48.836;9.174;2022-09-27T02:07:50;10.70;99.90
48744;DHT22;34538;48.836;9.174;2022-09-27T02:10:23;10.60;99.90
48744;DHT22;34538;48.836;9.174;2022-09-27T02:15:47;10.60;99.90
48744;DHT22;34538;48.836;9.174;2022-09-27T02:19:01;10.50;99.90
48744;DHT22;34538;48.836;9.174;2022-09-27T02:24:24;10.50;99.90
48744;DHT22;34538;48.836;9.174;2022-09-27T02:27:20;10.50;99.90
48744;DHT22;34538;48.836;9.174;2022-09-27T02:29:59;10.50;99.90
48744;DHT22;34538;48.836;9.174;2022-09-27T02:32:27;10.40;99.90
48744;DHT22;34538;48.836;9.174;2022-09-27T02:34:54;10.40;99.90
48744;DHT22;34538;48.836;9.174;2022-09-27T02:37:22;10.40;99.90
48744;DHT22;34538;48.836;9.174;2022-09-27T02:39:48;10.40;99.90
48744;DHT22;34538;48.836;9.174;2022-09-27T02:42:14;10.40;99.90
48744;DHT22;34538;48.836;9.174;2022-09-27T02:44:41;10.40;99.90
48744;DHT22;34538;48.836;9.174;2022-09-27T03:05:10;10.10;99.90
48744;DHT22;34538;48.836;9.174;2022-09-27T03:07:37;10.00;99.90
48744;DHT22;34538;48.836;9.174;2022-09-27T03:10:05;10.00;99.90
48744;DHT22;34538;48.836;9.174;2022-09-27T03:12:31;10.00;99.90
48744;DHT22;34538;48.836;9.174;2022-09-27T03:14:58;9.90;99.90
48744;DHT22;34538;48.836;9.174;2022-09-27T03:17:45;9.90;99.90
48744;DHT22;34538;48.836;9.174;2022-09-27T03:20:25;9.90;99.90
48744;DHT22;34538;48.836;9.174;2022-09-27T03:23:06;9.80;99.90
48744;DHT22;34538;48.836;9.174;2022-09-27T03:25:32;9.80;99.90
48744;DHT22;34538;48.836;9.174;2022-09-27T03:27:57;9.80;99.90
48744;DHT22;34538;48.836;9.174;2022-09-27T03:30:23;9.80;99.90
48744;DHT22;34538;48.836;9.174;2022-09-27T03:32:48;9.80;99.90
48744;DHT22;34538;48.836;9.174;2022-09-27T03:35:32;9.90;99.90
48744;DHT22;34538;48.836;9.174;2022-09-27T03:37:58;9.80;99.90
48744;DHT22;34538;48.836;9.174;2022-09-27T03:40:24;9.80;99.90
48744;DHT22;34538;48.836;9.174;2022-09-27T03:42:50;9.80;99.90
48744;DHT22;34538;48.836;9.174;2022-09-27T03:45:16;9.70;99.90
48744;DHT22;34538;48.836;9.174;2022-09-27T03:47:42;9.70;99.90
48744;DHT22;34538;48.836;9.174;2022-09-27T03:50:09;9.70;99.90
48744;DHT22;34538;48.836;9.174;2022-09-27T03:52:36;9.70;99.90
48744;DHT22;34538;48.836;9.174;2022-09-27T03:55:02;9.70;99.90
48744;DHT22;34538;48.836;9.174;2022-09-27T03:57:29;9.70;99.90
48744;DHT22;34538;48.836;9.174;2022-09-27T03:59:57;9.70;99.90
48744;DHT22;34538;48.836;9.174;2022-09-27T04:02:39;9.70;99.90
48744;DHT22;34538;48.836;9.174;2022-09-27T04:05:29;9.70;99.90
48744;DHT22;34538;48.836;9.174;2022-09-27T04:08:05;9.70;99.90
48744;DHT22;34538;48.836;9.174;2022-09-27T04:10:32;9.70;99.90
48744;DHT22;34538;48.836;9.174;2022-09-27T04:12:58;9.70;99.90
48744;DHT22;34538;48.836;9.174;2022-09-27T04:15:26;9.80;99.90
48744;DHT22;34538;48.836;9.174;2022-09-27T04:18:10;9.80;99.90
48744;DHT22;34538;48.836;9.174;2022-09-27T04:21:01;9.80;99.90
48744;DHT22;34538;48.836;9.174;2022-09-27T04:23:28;9.90;99.90
48744;DHT22;34538;48.836;9.174;2022-09-27T04:25:54;9.90;99.90
48744;DHT22;34538;48.836;9.174;2022-09-27T04:28:39;9.90;99.90
48744;DHT22;34538;48.836;9.174;2022-09-27T04:31:05;9.90;99.90
48744;DHT22;34538;48.836;9.174;2022-09-27T04:33:36;9.90;99.90
48744;DHT22;34538;48.836;9.174;2022-09-27T04:36:09;9.90;99.90
48744;DHT22;34538;48.836;9.174;2022-09-27T04:39:09;9.90;99.90
48744;DHT22;34538;48.836;9.174;2022-09-27T04:41:38;9.90;99.90
48744;DHT22;34538;48.836;9.174;2022-09-27T04:44:04;9.90;99.90
48744;DHT22;34538;48.836;9.174;2022-09-27T04:46:31;9.90;99.90
48744;DHT22;34538;48.836;9.174;2022-09-27T04:48:58;9.90;99.90
48744;DHT22;34538;48.836;9.174;2022-09-27T04:51:24;9.90;99.90
48744;DHT22;34538;48.836;9.174;2022-09-27T04:53:52;10.00;99.90
48744;DHT22;34538;48.836;9.174;2022-09-27T04:56:18;10.00;99.90
48744;DHT22;34538;48.836;9.174;2022-09-27T04:58:44;10.00;99.90
48744;DHT22;34538;48.836;9.174;2022-09-27T05:01:11;10.00;99.90
48744;DHT22;34538;48.836;9.174;2022-09-27T05:03:58;10.00;99.90
48744;DHT22;34538;48.836;9.174;2022-09-27T05:06:25;10.00;99.90
48744;DHT22;34538;48.836;9.174;2022-09-27T05:08:53;10.00;99.90
48744;DHT22;34538;48.836;9.174;2022-09-27T05:11:25;10.00;99.90
48744;DHT22;34538;48.836;9.174;2022-09-27T05:14:23;10.00;99.90
48744;DHT22;34538;48.836;9.174;2022-09-27T05:17:21;10.00;99.90
48744;DHT22;34538;48.836;9.174;2022-09-27T05:19:53;10.00;99.90
48744;DHT22;34538;48.836;9.174;2022-09-27T05:22:33;10.00;99.90
48744;DHT22;34538;48.836;9.174;2022-09-27T05:24:58;10.10;99.90
48744;DHT22;34538;48.836;9.174;2022-09-27T05:27:24;10.00;99.90
48744;DHT22;34538;48.836;9.174;2022-09-27T05:29:50;10.10;99.90
48744;DHT22;34538;48.836;9.174;2022-09-27T05:32:22;10.00;99.90
48744;DHT22;34538;48.836;9.174;2022-09-27T05:34:55;10.00;99.90
48744;DHT22;34538;48.836;9.174;2022-09-27T05:37:21;10.00;99.90
48744;DHT22;34538;48.836;9.174;2022-09-27T05:39:47;10.00;99.90
48744;DHT22;34538;48.836;9.174;2022-09-27T05:42:14;9.90;99.90
48744;DHT22;34538;48.836;9.174;2022-09-27T05:44:41;9.90;99.90
48744;DHT22;34538;48.836;9.174;2022-09-27T05:47:07;9.90;99.90
48744;DHT22;34538;48.836;9.174;2022-09-27T05:49:33;9.80;99.90
48744;DHT22;34538;48.836;9.174;2022-09-27T05:52:01;9.80;99.90
48744;DHT22;34538;48.836;9.174;2022-09-27T05:54:27;9.80;99.90
48744;DHT22;34538;48.836;9.174;2022-09-27T05:56:55;9.80;99.90
48744;DHT22;34538;48.836;9.174;2022-09-27T05:59:50;9.80;99.90
48744;DHT22;34538;48.836;9.174;2022-09-27T06:02:19;9.80;99.90
48744;DHT22;34538;48.836;9.174;2022-09-27T06:05:03;9.80;99.90
48744;DHT22;34538;48.836;9.174;2022-09-27T06:07:47;9.70;99.90
48744;DHT22;34538;48.836;9.174;2022-09-27T06:10:29;9.80;99.90
48744;DHT22;34538;48.836;9.174;2022-09-27T06:13:07;9.80;99.90
48744;DHT22;34538;48.836;9.174;2022-09-27T06:15:40;9.80;99.90
48744;DHT22;34538;48.836;9.174;2022-09-27T06:18:08;9.80;99.90
48744;DHT22;34538;48.836;9.174;2022-09-27T06:20:35;9.80;99.90
48744;DHT22;34538;48.836;9.174;2022-09-27T06:23:08;9.80;99.90
48744;DHT22;34538;48.836;9.174;2022-09-27T06:25:35;9.80;99.90
48744;DHT22;34538;48.836;9.174;2022-09-27T06:28:36;9.90;99.90
48744;DHT22;34538;48.836;9.174;2022-09-27T06:31:07;9.90;99.90
48744;DHT22;34538;48.836;9.174;2022-09-27T06:34:00;9.90;99.90
48744;DHT22;34538;48.836;9.174;2022-09-27T06:36:27;9.90;99.90
48744;DHT22;34538;48.836;9.174;2022-09-27T06:38:53;9.80;99.90
48744;DHT22;34538;48.836;9.174;2022-09-27T06:41:38;9.80;99.90
48744;DHT22;34538;48.836;9.174;2022-09-27T06:44:09;9.90;99.90
48744;DHT22;34538;48.836;9.174;2022-09-27T06:46:35;9.90;99.90
48744;DHT22;34538;48.836;9.174;2022-09-27T06:49:21;9.90;99.90
48744;DHT22;34538;48.836;9.174;2022-09-27T06:51:48;9.90;99.90
48744;DHT22;34538;48.836;9.174;2022-09-27T06:54:13;9.90;99.90
48744;DHT22;34538;48.836;9.174;2022-09-27T06:56:39;9.80;99.90
48744;DHT22;34538;48.836;9.174;2022-09-27T06:59:05;9.70;99.90
48744;DHT22;34538;48.836;9.174;2022-09-27T07:01:49;9.60;99.90
48744;DHT22;34538;48.836;9.174;2022-09-27T07:04:35;9.60;99.90
48744;DHT22;34538;48.836;9.174;2022-09-27T07:07:08;9.50;99.90
48744;DHT22;34538;48.836;9.174;2022-09-27T07:09:42;9.50;99.90
48744;DHT22;34538;48.836;9.174;2022-09-27T07:12:07;9.50;99.90
48744;DHT22;34538;48.836;9.174;2022-09-27T07:14:33;9.40;99.90
48744;DHT22;34538;48.836;9.174;2022-09-27T07:17:00;9.40;99.90
48744;DHT22;34538;48.836;9.174;2022-09-27T07:19:32;9.40;99.90
48744;DHT22;34538;48.836;9.174;2022-09-27T07:21:57;9.40;99.90
48744;DHT22;34538;48.836;9.174;2022-09-27T07:24:23;9.50;99.90
48744;DHT22;34538;48.836;9.174;2022-09-27T07:26:49;9.50;99.90
48744;DHT22;34538;48.836;9.174;2022-09-27T07:29:17;9.60;99.90
48744;DHT22;34538;48.836;9.174;2022-09-27T07:31:44;9.60;99.90
48744;DHT22;34538;48.836;9.174;2022-09-27T07:34:09;9.70;99.90
48744;DHT22;34538;48.836;9.174;2022-09-27T07:36:36;9.70;99.90
48744;DHT22;34538;48.836;9.174;2022-09-27T07:39:02;9.70;99.90
48744;DHT22;34538;48.836;9.174;2022-09-27T07:41:31;9.70;99.90
48744;DHT22;34538;48.836;9.174;2022-09-27T07:43:57;9.70;99.90
48744;DHT22;34538;48.836;9.174;2022-09-27T07:46:24;9.70;99.90
48744;DHT22;34538;48.836;9.174;2022-09-27T07:48:56;9.70;99.90
48744;DHT22;34538;48.836;9.174;2022-09-27T07:51:40;9.70;99.90
48744;DHT22;34538;48.836;9.174;2022-09-27T07:54:26;9.80;99.90
48744;DHT22;34538;48.836;9.174;2022-09-27T07:57:07;9.90;99.90
48744;DHT22;34538;48.836;9.174;2022-09-27T07:59:44;10.00;99.90
48744;DHT22;34538;48.836;9.174;2022-09-27T08:02:16;10.00;99.90
48744;DHT22;34538;48.836;9.174;2022-09-27T08:04:43;10.00;99.90
48744;DHT22;34538;48.836;9.174;2022-09-27T08:07:09;10.10;99.90
48744;DHT22;34538;48.836;9.174;2022-09-27T08:09:36;10.10;99.90
48744;DHT22;34538;48.836;9.174;2022-09-27T08:12:02;10.30;99.90
48744;DHT22;34538;48.836;9.174;2022-09-27T08:14:29;10.30;99.90
48744;DHT22;34538;48.836;9.174;2022-09-27T08:16:57;10.50;99.90
48744;DHT22;34538;48.836;9.174;2022-09-27T08:19:25;10.50;99.90
48744;DHT22;34538;48.836;9.174;2022-09-27T08:22:14;10.50;99.90
48744;DHT22;34538;48.836;9.174;2022-09-27T08:24:47;10.50;99.90
48744;DHT22;34538;48.836;9.174;2022-09-27T08:27:21;10.60;99.90
48744;DHT22;34538;48.836;9.174;2022-09-27T08:29:51;10.80;99.90
48744;DHT22;34538;48.836;9.174;2022-09-27T08:32:17;10.90;99.90
48744;DHT22;34538;48.836;9.174;2022-09-27T08:34:43;11.00;99.90
48744;DHT22;34538;48.836;9.174;2022-09-27T08:37:09;11.00;99.90
48744;DHT22;34538;48.836;9.174;2022-09-27T08:39:36;11.00;99.90
48744;DHT22;34538;48.836;9.174;2022-09-27T08:47:26;11.30;99.90
48744;DHT22;34538;48.836;9.174;2022-09-27T08:50:25;11.40;99.90
48744;DHT22;34538;48.836;9.174;2022-09-27T09:00:38;11.60;99.90
48744;DHT22;34538;48.836;9.174;2022-09-27T09:03:04;11.60;99.90
48744;DHT22;34538;48.836;9.174;2022-09-27T09:05:33;11.60;99.90
48744;DHT22;34538;48.836;9.174;2022-09-27T09:08:30;11.60;99.90
48744;DHT22;34538;48.836;9.174;2022-09-27T09:11:03;11.60;99.90
48744;DHT22;34538;48.836;9.174;2022-09-27T09:17:03;11.50;99.90
48744;DHT22;34538;48.836;9.174;2022-09-27T09:25:21;11.00;99.90
48744;DHT22;34538;48.836;9.174;2022-09-27T09:30:43;10.70;99.90
48744;DHT22;34538;48.836;9.174;2022-09-27T09:33:24;10.60;99.90
48744;DHT22;34538;48.836;9.174;2022-09-27T09:35:55;10.60;99.90
48744;DHT22;34538;48.836;9.174;2022-09-27T09:38:46;10.60;99.90
48744;DHT22;34538;48.836;9.174;2022-09-27T09:41:27;10.60;99.90
48744;DHT22;34538;48.836;9.174;2022-09-27T09:46:40;10.80;99.90
48744;DHT22;34538;48.836;9.174;2022-09-27T09:51:48;11.30;99.90
48744;DHT22;34538;48.836;9.174;2022-09-27T09:54:47;11.40;99.90
48744;DHT22;34538;48.836;9.174;2022-09-27T09:57:22;11.50;99.90
48744;DHT22;34538;48.836;9.174;2022-09-27T09:59:56;11.60;99.90
48744;DHT22;34538;48.836;9.174;2022-09-27T10:02:41;11.80;99.90
48744;DHT22;34538;48.836;9.174;2022-09-27T10:05:18;11.80;99.90
48744;DHT22;34538;48.836;9.174;2022-09-27T10:07:47;11.90;99.90
48744;DHT22;34538;48.836;9.174;2022-09-27T10:10:18;12.10;99.90
48744;DHT22;34538;48.836;9.174;2022-09-27T10:12:53;12.10;99.90
48744;DHT22;34538;48.836;9.174;2022-09-27T10:15:25;12.20;99.90
48744;DHT22;34538;48.836;9.174;2022-09-27T10:17:56;12.40;99.90
48744;DHT22;34538;48.836;9.174;2022-09-27T10:20:27;12.50;99.90
48744;DHT22;34538;48.836;9.174;2022-09-27T10:23:00;12.60;99.90
48744;DHT22;34538;48.836;9.174;2022-09-27T10:25:52;12.70;99.90
48744;DHT22;34538;48.836;9.174;2022-09-27T10:28:40;12.70;99.90
48744;DHT22;34538;48.836;9.174;2022-09-27T10:31:11;12.60;99.90
48744;DHT22;34538;48.836;9.174;2022-09-27T10:34:02;12.60;99.90
48744;DHT22;34538;48.836;9.174;2022-09-27T10:36:38;12.60;99.90
48744;DHT22;34538;48.836;9.174;2022-09-27T10:39:05;12.60;99.90
48744;DHT22;34538;48.836;9.174;2022-09-27T10:41:40;12.50;99.90
48744;DHT22;34538;48.836;9.174;2022-09-27T10:46:51;12.50;99.90
48744;DHT22;34538;48.836;9.174;2022-09-27T10:49:41;12.50;99.90
48744;DHT22;34538;48.836;9.174;2022-09-27T10:52:34;12.40;99.90
48744;DHT22;34538;48.836;9.174;2022-09-27T10:55:21;12.40;99.90
48744;DHT22;34538;48.836;9.174;2022-09-27T10:57:51;12.40;99.90
48744;DHT22;34538;48.836;9.174;2022-09-27T11:00:24;12.50;99.90
48744;DHT22;34538;48.836;9.174;2022-09-27T11:02:53;12.40;99.90
48744;DHT22;34538;48.836;9.174;2022-09-27T11:07:56;12.50;99.90
48744;DHT22;34538;48.836;9.174;2022-09-27T11:10:36;12.40;99.90
48744;DHT22;34538;48.836;9.174;2022-09-27T11:13:19;12.40;99.90
48744;DHT22;34538;48.836;9.174;2022-09-27T11:18:54;12.40;99.90
48744;DHT22;34538;48.836;9.174;2022-09-27T11:27:32;12.50;99.90
48744;DHT22;34538;48.836;9.174;2022-09-27T11:30:09;12.60;99.90
48744;DHT22;34538;48.836;9.174;2022-09-27T11:33:04;12.60;99.90
48744;DHT22;34538;48.836;9.174;2022-09-27T11:38:58;12.70;99.90
48744;DHT22;34538;48.836;9.174;2022-09-27T11:47:14;12.70;99.90
48744;DHT22;34538;48.836;9.174;2022-09-27T11:52:36;12.60;99.90
48744;DHT22;34538;48.836;9.174;2022-09-27T11:57:58;12.50;99.90
48744;DHT22;34538;48.836;9.174;2022-09-27T12:08:55;10.60;99.90
48744;DHT22;34538;48.836;9.174;2022-09-27T12:16:38;9.70;99.90
48744;DHT22;34538;48.836;9.174;2022-09-27T12:22:21;9.40;99.90
48744;DHT22;34538;48.836;9.174;2022-09-27T12:24:49;9.30;99.90
48744;DHT22;34538;48.836;9.174;2022-09-27T12:27:46;9.40;99.90
48744;DHT22;34538;48.836;9.174;2022-09-27T12:30:18;9.40;99.90
48744;DHT22;34538;48.836;9.174;2022-09-27T12:33:00;9.40;99.90
48744;DHT22;34538;48.836;9.174;2022-09-27T12:35:28;9.50;99.90
48744;DHT22;34538;48.836;9.174;2022-09-27T12:38:09;9.50;99.90
48744;DHT22;34538;48.836;9.174;2022-09-27T12:40:43;9.60;99.90
48744;DHT22;34538;48.836;9.174;2022-09-27T12:43:17;9.60;99.90
48744;DHT22;34538;48.836;9.174;2022-09-27T12:48:55;9.70;99.90
48744;DHT22;34538;48.836;9.174;2022-09-27T12:51:35;9.70;99.90
48744;DHT22;34538;48.836;9.174;2022-09-27T13:00:17;9.80;99.90
48744;DHT22;34538;48.836;9.174;2022-09-27T13:09:09;10.20;99.90
48744;DHT22;34538;48.836;9.174;2022-09-27T13:11:46;10.30;99.90
48744;DHT22;34538;48.836;9.174;2022-09-27T13:14:18;10.40;99.90
48744;DHT22;34538;48.836;9.174;2022-09-27T13:16:46;10.40;99.90
48744;DHT22;34538;48.836;9.174;2022-09-27T13:19:41;10.30;99.90
48744;DHT22;34538;48.836;9.174;2022-09-27T13:22:35;10.30;99.90
48744;DHT22;34538;48.836;9.174;2022-09-27T13:25:13;10.20;99.90
48744;DHT22;34538;48.836;9.174;2022-09-27T13:27:55;10.10;99.90
48744;DHT22;34538;48.836;9.174;2022-09-27T13:38:51;9.70;99.90
48744;DHT22;34538;48.836;9.174;2022-09-27T13:41:20;9.60;99.90
48744;DHT22;34538;48.836;9.174;2022-09-27T13:50:01;9.60;99.90
48744;DHT22;34538;48.836;9.174;2022-09-27T13:52:43;9.50;99.90
48744;DHT22;34538;48.836;9.174;2022-09-27T13:55:48;9.60;99.90
48744;DHT22;34538;48.836;9.174;2022-09-27T13:58:51;9.60;99.90
48744;DHT22;34538;48.836;9.174;2022-09-27T14:01:50;9.60;99.90
48744;DHT22;34538;48.836;9.174;2022-09-27T14:04:29;9.60;99.90
48744;DHT22;34538;48.836;9.174;2022-09-27T14:07:01;9.60;99.90
48744;DHT22;34538;48.836;9.174;2022-09-27T14:09:34;9.60;99.90
48744;DHT22;34538;48.836;9.174;2022-09-27T14:12:18;9.60;99.90
48744;DHT22;34538;48.836;9.174;2022-09-27T14:14:45;9.50;99.90
48744;DHT22;34538;48.836;9.174;2022-09-27T14:17:14;9.50;99.90
48744;DHT22;34538;48.836;9.174;2022-09-27T14:19:42;9.50;99.90
48744;DHT22;34538;48.836;9.174;2022-09-27T14:22:13;9.50;99.90
48744;DHT22;34538;48.836;9.174;2022-09-27T14:24:54;9.50;99.90
48744;DHT22;34538;48.836;9.174;2022-09-27T14:27:29;9.60;99.90
48744;DHT22;34538;48.836;9.174;2022-09-27T14:30:16;9.60;99.90
48744;DHT22;34538;48.836;9.174;2022-09-27T14:32:50;9.60;99.90
48744;DHT22;34538;48.836;9.174;2022-09-27T14:35:24;9.60;99.90
48744;DHT22;34538;48.836;9.174;2022-09-27T14:38:18;9.60;99.90
48744;DHT22;34538;48.836;9.174;2022-09-27T14:43:19;9.70;99.90
48744;DHT22;34538;48.836;9.174;2022-09-27T14:45:48;9.70;99.90
48744;DHT22;34538;48.836;9.174;2022-09-27T14:48:34;9.80;99.90
48744;DHT22;34538;48.836;9.174;2022-09-27T14:53:39;10.00;99.90
48744;DHT22;34538;48.836;9.174;2022-09-27T14:56:08;10.10;99.90
48744;DHT22;34538;48.836;9.174;2022-09-27T14:58:36;10.20;99.90
48744;DHT22;34538;48.836;9.174;2022-09-27T15:01:02;10.30;99.90
48744;DHT22;34538;48.836;9.174;2022-09-27T15:03:30;10.40;99.90
48744;DHT22;34538;48.836;9.174;2022-09-27T15:05:58;10.50;99.90
48744;DHT22;34538;48.836;9.174;2022-09-27T15:08:29;10.50;99.90
48744;DHT22;34538;48.836;9.174;2022-09-27T15:10:56;10.50;99.90
48744;DHT22;34538;48.836;9.174;2022-09-27T15:13:22;10.50;99.90
48744;DHT22;34538;48.836;9.174;2022-09-27T15:15:49;10.40;99.90
48744;DHT22;34538;48.836;9.174;2022-09-27T15:18:42;10.50;99.90
48744;DHT22;34538;48.836;9.174;2022-09-27T15:21:13;10.50;99.90
48744;DHT22;34538;48.836;9.174;2022-09-27T15:23:41;10.50;99.90
48744;DHT22;34538;48.836;9.174;2022-09-27T15:26:18;10.60;99.90
48744;DHT22;34538;48.836;9.174;2022-09-27T15:28:48;10.60;99.90
48744;DHT22;34538;48.836;9.174;2022-09-27T15:31:14;10.70;99.90
48744;DHT22;34538;48.836;9.174;2022-09-27T15:33:41;10.70;99.90
48744;DHT22;34538;48.836;9.174;2022-09-27T15:36:09;10.80;99.90
48744;DHT22;34538;48.836;9.174;2022-09-27T15:38:41;10.80;99.90
48744;DHT22;34538;48.836;9.174;2022-09-27T15:41:19;10.80;99.90
48744;DHT22;34538;48.836;9.174;2022-09-27T15:43:47;10.80;99.90
48744;DHT22;34538;48.836;9.174;2022-09-27T15:46:32;10.80;99.90
48744;DHT22;34538;48.836;9.174;2022-09-27T15:51:51;10.80;99.90
48744;DHT22;34538;48.836;9.174;2022-09-27T15:54:18;10.80;99.90
48744;DHT22;34538;48.836;9.174;2022-09-27T15:56:46;10.80;99.90
48744;DHT22;34538;48.836;9.174;2022-09-27T15:59:23;10.80;99.90
48744;DHT22;34538;48.836;9.174;2022-09-27T16:01:57;10.80;99.90
48744;DHT22;34538;48.836;9.174;2022-09-27T16:04:24;10.80;99.90
48744;DHT22;34538;48.836;9.174;2022-09-27T16:06:52;10.80;99.90
48744;DHT22;34538;48.836;9.174;2022-09-27T16:09:19;10.80;99.90
48744;DHT22;34538;48.836;9.174;2022-09-27T16:11:46;10.80;99.90
48744;DHT22;34538;48.836;9.174;2022-09-27T16:14:12;10.80;99.90
48744;DHT22;34538;48.836;9.174;2022-09-27T16:16:46;10.70;99.90
48744;DHT22;34538;48.836;9.174;2022-09-27T16:19:13;10.60;99.90
48744;DHT22;34538;48.836;9.174;2022-09-27T16:21:38;10.60;99.90
48744;DHT22;34538;48.836;9.174;2022-09-27T16:24:07;10.50;99.90
48744;DHT22;34538;48.836;9.174;2022-09-27T16:26:33;10.40;99.90
48744;DHT22;34538;48.836;9.174;2022-09-27T16:28:59;10.40;99.90
48744;DHT22;34538;48.836;9.174;2022-09-27T16:31:25;10.30;99.90
48744;DHT22;34538;48.836;9.174;2022-09-27T16:33:50;10.30;99.90
48744;DHT22;34538;48.836;9.174;2022-09-27T16:36:16;10.20;99.90
48744;DHT22;34538;48.836;9.174;2022-09-27T16:38:49;10.20;99.90
48744;DHT22;34538;48.836;9.174;2022-09-27T16:41:16;10.20;99.90
48744;DHT22;34538;48.836;9.174;2022-09-27T16:43:41;10.20;99.90
48744;DHT22;34538;48.836;9.174;2022-09-27T16:46:09;10.20;99.90
48744;DHT22;34538;48.836;9.174;2022-09-27T16:48:36;10.20;99.90
48744;DHT22;34538;48.836;9.174;2022-09-27T16:51:09;10.10;99.90
48744;DHT22;34538;48.836;9.174;2022-09-27T16:53:54;10.20;99.90
48744;DHT22;34538;48.836;9.174;2022-09-27T16:56:20;10.20;99.90
48744;DHT22;34538;48.836;9.174;2022-09-27T16:58:46;10.20;99.90
48744;DHT22;34538;48.836;9.174;2022-09-27T17:01:12;10.20;99.90
48744;DHT22;34538;48.836;9.174;2022-09-27T17:03:42;10.10;99.90
48744;DHT22;34538;48.836;9.174;2022-09-27T17:06:07;10.10;99.90
48744;DHT22;34538;48.836;9.174;2022-09-27T17:08:33;10.10;99.90
48744;DHT22;34538;48.836;9.174;2022-09-27T17:10:59;10.10;99.90
48744;DHT22;34538;48.836;9.174;2022-09-27T17:13:24;10.10;99.90
48744;DHT22;34538;48.836;9.174;2022-09-27T17:15:51;10.10;99.90
48744;DHT22;34538;48.836;9.174;2022-09-27T17:18:17;10.10;99.90
48744;DHT22;34538;48.836;9.174;2022-09-27T17:20:43;10.10;99.90
48744;DHT22;34538;48.836;9.174;2022-09-27T17:23:09;10.10;99.90
48744;DHT22;34538;48.836;9.174;2022-09-27T17:25:34;10.10;99.90
48744;DHT22;34538;48.836;9.174;2022-09-27T17:28:00;10.10;99.90
48744;DHT22;34538;48.836;9.174;2022-09-27T17:30:26;10.10;99.90
48744;DHT22;34538;48.836;9.174;2022-09-27T17:32:51;10.10;99.90
48744;DHT22;34538;48.836;9.174;2022-09-27T17:35:17;10.10;99.90
48744;DHT22;34538;48.836;9.174;2022-09-27T17:37:43;10.10;99.90
48744;DHT22;34538;48.836;9.174;2022-09-27T17:40:09;10.10;99.90
48744;DHT22;34538;48.836;9.174;2022-09-27T17:42:34;10.10;99.90
48744;DHT22;34538;48.836;9.174;2022-09-27T17:45:01;10.10;99.90
48744;DHT22;34538;48.836;9.174;2022-09-27T17:47:27;10.10;99.90
48744;DHT22;34538;48.836;9.174;2022-09-27T17:50:11;10.10;99.90
48744;DHT22;34538;48.836;9.174;2022-09-27T17:52:53;10.10;99.90
48744;DHT22;34538;48.836;9.174;2022-09-27T17:55:20;10.10;99.90
48744;DHT22;34538;48.836;9.174;2022-09-27T17:57:47;10.00;99.90
48744;DHT22;34538;48.836;9.174;2022-09-27T18:00:14;10.00;99.90
48744;DHT22;34538;48.836;9.174;2022-09-27T18:02:40;10.00;99.90
48744;DHT22;34538;48.836;9.174;2022-09-27T18:05:06;10.00;99.90
48744;DHT22;34538;48.836;9.174;2022-09-27T18:07:32;10.00;99.90
48744;DHT22;34538;48.836;9.174;2022-09-27T18:09:58;10.00;99.90
48744;DHT22;34538;48.836;9.174;2022-09-27T18:12:26;9.90;99.90
48744;DHT22;34538;48.836;9.174;2022-09-27T18:14:59;10.00;99.90
48744;DHT22;34538;48.836;9.174;2022-09-27T18:17:25;10.00;99.90
48744;DHT22;34538;48.836;9.174;2022-09-27T18:19:52;10.00;99.90
48744;DHT22;34538;48.836;9.174;2022-09-27T18:22:18;10.00;99.90
48744;DHT22;34538;48.836;9.174;2022-09-27T18:24:44;10.00;99.90
48744;DHT22;34538;48.836;9.174;2022-09-27T18:27:10;10.00;99.90
48744;DHT22;34538;48.836;9.174;2022-09-27T18:29:40;10.00;99.90
48744;DHT22;34538;48.836;9.174;2022-09-27T18:32:06;10.00;99.90
48744;DHT22;34538;48.836;9.174;2022-09-27T18:34:31;10.00;99.90
48744;DHT22;34538;48.836;9.174;2022-09-27T18:36:57;10.00;99.90
48744;DHT22;34538;48.836;9.174;2022-09-27T18:39:22;10.00;99.90
48744;DHT22;34538;48.836;9.174;2022-09-27T18:41:48;9.90;99.90
48744;DHT22;34538;48.836;9.174;2022-09-27T18:44:15;9.90;99.90
48744;DHT22;34538;48.836;9.174;2022-09-27T18:46:41;9.90;99.90
48744;DHT22;34538;48.836;9.174;2022-09-27T18:49:09;9.80;99.90
48744;DHT22;34538;48.836;9.174;2022-09-27T18:51:35;9.70;99.90
48744;DHT22;34538;48.836;9.174;2022-09-27T18:54:07;9.70;99.90
48744;DHT22;34538;48.836;9.174;2022-09-27T18:56:33;9.60;99.90